Airfield :
LOGIN :

Register | Disclaimer

   EN    FR    IT 

 










Legend :    VFR   Marginal VFR   IFR   Intensive IFR   Very Intensive IFR
Visi :
Ceiling :
>= 8 km
>= 3000ft
5 to 8 km
1000 to 3000 ft
1500m to 5 km
500 to 1000 ft
800 to 1500m
200 to 500 ft
< 800m
< 200 ft
Symbols :   Thunderstorms  Fog  Heavy snow  Heavy precipitations  Wind > 20 kt
SIGMETs :     Misc.  Thunderstorms  Icing  Turbulence  Mountain Waves  Volcanic Ashes






- Airport Elevation : 119 ft
- IATA code : WAT


EIWF - Waterford

CURRENT METAR :
  • 061430Z 32011KT 9999 SCT030 11/06 Q1004 R03/1/////

EXPIRED METARs :
  • 061400Z 31014KT 280V340 9999 SCT029 SCT034 11/06 Q1004 R03/1/////
  • 061330Z 31015KT 280V350 9999 SCT032 SCT038 11/06 Q1003 R03/1/////
  • 061300Z 31016G27KT 280V340 9999 SCT028 SCT032 11/06 Q1003 R03/1/////
  • 061230Z 31015G30KT 270V350 9999 FEW026 BKN029 10/07 Q1003 R03/1/////

TAF TAF EIWF
Valid from the 06 at 15:00 until the 07 at 00:00 UTC


061400Z 0615/0624 30016G28KT 9999 SCT018 SCT030
BECMG 0616/0618 30012KT
BECMG 0618/0620 26008KT
ATIS : +353 51 877 000



MET'MAP, your aeronautical weather chart ! - Copyright ORBIFLY December 2007 - Disclaimer

ORBIFLY MET'MAP TEAM :

Programming & Development : Alexandra Zaïnal
Concept & original design : Baudouin d'Aumeries
Assistance for programming : Marc-Olivier Méhu
Technical & hardware support : Manuel Goepfert

Contact : metmap@orbifly.com




SOURCES & CREDITS :

   NOAA